Terminal Aerodrome Forecast
Issued by NWS Tampa Bay Area, FL

Home | Current Version | Previous Version | Text Only | Print | Product List | Glossary On
Versions: 1 2 3 4 5 6 7 8 9 10 11 12 13 14 15 16 17 18
000
FTUS42 KTBW 281700
TAFSRQ
TAF
KSRQ 281720Z 2818/2918 22008KT P6SM SCT030
     FM290000 VRB04KT P6SM FEW035 SCT250
     FM290800 VRB03KT 5SM BR FEW005 SCT250
     FM291400 17007KT P6SM SCT020 SCT250=

USA.gov is the U.S. government's official web portal to all federal, state and local government web resources and services.